sensor_id;sensor_type;location;lat;lon;timestamp;P1;durP1;ratioP1;P2;durP2;ratioP2
11319;SDS011;5715;48.234;14.320;2023-07-13T00:02:42;10.18;;;3.13;;
11319;SDS011;5715;48.234;14.320;2023-07-13T00:05:30;3.10;;;2.90;;
11319;SDS011;5715;48.234;14.320;2023-07-13T00:08:18;3.05;;;2.95;;
11319;SDS011;5715;48.234;14.320;2023-07-13T00:11:06;3.17;;;2.80;;
11319;SDS011;5715;48.234;14.320;2023-07-13T00:13:53;2.55;;;2.45;;
11319;SDS011;5715;48.234;14.320;2023-07-13T00:16:41;7.50;;;2.90;;
11319;SDS011;5715;48.234;14.320;2023-07-13T00:19:32;2.78;;;2.67;;
11319;SDS011;5715;48.234;14.320;2023-07-13T00:22:19;3.30;;;2.92;;
11319;SDS011;5715;48.234;14.320;2023-07-13T00:25:09;2.50;;;2.40;;
11319;SDS011;5715;48.234;14.320;2023-07-13T00:28:00;3.05;;;2.90;;
11319;SDS011;5715;48.234;14.320;2023-07-13T00:30:47;2.83;;;2.72;;
11319;SDS011;5715;48.234;14.320;2023-07-13T00:33:35;3.03;;;2.83;;
11319;SDS011;5715;48.234;14.320;2023-07-13T00:36:24;2.50;;;2.40;;
11319;SDS011;5715;48.234;14.320;2023-07-13T00:39:12;2.70;;;2.60;;
11319;SDS011;5715;48.234;14.320;2023-07-13T00:42:00;2.88;;;2.78;;
11319;SDS011;5715;48.234;14.320;2023-07-13T00:47:58;2.50;;;2.40;;
11319;SDS011;5715;48.234;14.320;2023-07-13T00:50:48;2.80;;;2.70;;
11319;SDS011;5715;48.234;14.320;2023-07-13T00:53:40;6.65;;;2.83;;
11319;SDS011;5715;48.234;14.320;2023-07-13T00:56:28;8.60;;;2.75;;
11319;SDS011;5715;48.234;14.320;2023-07-13T00:59:18;4.15;;;2.60;;
11319;SDS011;5715;48.234;14.320;2023-07-13T01:02:08;2.72;;;2.55;;
11319;SDS011;5715;48.234;14.320;2023-07-13T01:04:58;6.43;;;3.50;;
11319;SDS011;5715;48.234;14.320;2023-07-13T01:07:46;3.25;;;3.10;;
11319;SDS011;5715;48.234;14.320;2023-07-13T01:10:50;2.67;;;2.58;;
11319;SDS011;5715;48.234;14.320;2023-07-13T01:13:43;5.10;;;3.40;;
11319;SDS011;5715;48.234;14.320;2023-07-13T01:16:32;4.70;;;3.30;;
11319;SDS011;5715;48.234;14.320;2023-07-13T01:19:42;3.45;;;3.25;;
11319;SDS011;5715;48.234;14.320;2023-07-13T01:22:32;10.88;;;3.90;;
11319;SDS011;5715;48.234;14.320;2023-07-13T01:25:19;2.88;;;2.67;;
11319;SDS011;5715;48.234;14.320;2023-07-13T01:28:08;3.03;;;2.83;;
11319;SDS011;5715;48.234;14.320;2023-07-13T01:30:57;12.43;;;3.17;;
11319;SDS011;5715;48.234;14.320;2023-07-13T01:33:46;9.93;;;3.30;;
11319;SDS011;5715;48.234;14.320;2023-07-13T01:36:33;7.63;;;3.22;;
11319;SDS011;5715;48.234;14.320;2023-07-13T01:39:21;2.67;;;2.58;;
11319;SDS011;5715;48.234;14.320;2023-07-13T01:42:10;2.88;;;2.60;;
11319;SDS011;5715;48.234;14.320;2023-07-13T01:44:57;3.60;;;3.15;;
11319;SDS011;5715;48.234;14.320;2023-07-13T01:47:45;2.70;;;2.50;;
11319;SDS011;5715;48.234;14.320;2023-07-13T01:50:33;3.03;;;2.83;;
11319;SDS011;5715;48.234;14.320;2023-07-13T01:53:21;2.65;;;2.55;;
11319;SDS011;5715;48.234;14.320;2023-07-13T01:56:09;2.70;;;2.50;;
11319;SDS011;5715;48.234;14.320;2023-07-13T01:58:57;8.90;;;2.55;;
11319;SDS011;5715;48.234;14.320;2023-07-13T02:01:44;2.92;;;2.72;;
11319;SDS011;5715;48.234;14.320;2023-07-13T02:04:32;6.72;;;3.92;;
11319;SDS011;5715;48.234;14.320;2023-07-13T02:07:22;2.92;;;2.72;;
11319;SDS011;5715;48.234;14.320;2023-07-13T02:10:11;2.92;;;2.72;;
11319;SDS011;5715;48.234;14.320;2023-07-13T02:12:58;3.20;;;3.00;;
11319;SDS011;5715;48.234;14.320;2023-07-13T02:15:46;3.55;;;3.25;;
11319;SDS011;5715;48.234;14.320;2023-07-13T02:18:37;7.63;;;3.95;;
11319;SDS011;5715;48.234;14.320;2023-07-13T02:21:25;3.15;;;2.95;;
11319;SDS011;5715;48.234;14.320;2023-07-13T02:24:12;3.08;;;2.85;;
11319;SDS011;5715;48.234;14.320;2023-07-13T02:27:04;3.20;;;3.00;;
11319;SDS011;5715;48.234;14.320;2023-07-13T02:29:52;3.25;;;3.05;;
11319;SDS011;5715;48.234;14.320;2023-07-13T02:32:40;8.48;;;6.57;;
11319;SDS011;5715;48.234;14.320;2023-07-13T02:35:28;8.43;;;3.55;;
11319;SDS011;5715;48.234;14.320;2023-07-13T02:38:15;9.30;;;8.43;;
11319;SDS011;5715;48.234;14.320;2023-07-13T02:41:03;7.10;;;4.70;;
11319;SDS011;5715;48.234;14.320;2023-07-13T02:43:53;9.55;;;8.13;;
11319;SDS011;5715;48.234;14.320;2023-07-13T02:46:49;7.40;;;6.72;;
11319;SDS011;5715;48.234;14.320;2023-07-13T02:49:37;3.65;;;3.17;;
11319;SDS011;5715;48.234;14.320;2023-07-13T02:52:24;4.45;;;4.13;;
11319;SDS011;5715;48.234;14.320;2023-07-13T02:55:13;4.00;;;3.60;;
11319;SDS011;5715;48.234;14.320;2023-07-13T02:58:01;3.83;;;3.45;;
11319;SDS011;5715;48.234;14.320;2023-07-13T03:00:49;4.60;;;4.07;;
11319;SDS011;5715;48.234;14.320;2023-07-13T03:03:37;4.80;;;3.88;;
11319;SDS011;5715;48.234;14.320;2023-07-13T03:06:25;13.13;;;5.32;;
11319;SDS011;5715;48.234;14.320;2023-07-13T03:09:16;3.85;;;3.55;;
11319;SDS011;5715;48.234;14.320;2023-07-13T03:12:04;8.85;;;4.28;;
11319;SDS011;5715;48.234;14.320;2023-07-13T03:14:52;3.63;;;3.33;;
11319;SDS011;5715;48.234;14.320;2023-07-13T03:17:40;5.03;;;4.53;;
11319;SDS011;5715;48.234;14.320;2023-07-13T03:20:27;7.70;;;3.47;;
11319;SDS011;5715;48.234;14.320;2023-07-13T03:23:15;6.07;;;5.05;;
11319;SDS011;5715;48.234;14.320;2023-07-13T03:29:00;3.83;;;3.53;;
11319;SDS011;5715;48.234;14.320;2023-07-13T03:31:48;3.63;;;3.38;;
11319;SDS011;5715;48.234;14.320;2023-07-13T03:34:35;4.05;;;3.63;;
11319;SDS011;5715;48.234;14.320;2023-07-13T03:37:23;11.30;;;4.28;;
11319;SDS011;5715;48.234;14.320;2023-07-13T03:40:12;5.45;;;4.93;;
11319;SDS011;5715;48.234;14.320;2023-07-13T03:43:00;3.22;;;3.00;;
11319;SDS011;5715;48.234;14.320;2023-07-13T03:45:49;4.15;;;3.40;;
11319;SDS011;5715;48.234;14.320;2023-07-13T03:48:36;4.43;;;4.03;;
11319;SDS011;5715;48.234;14.320;2023-07-13T03:51:26;14.18;;;3.38;;
11319;SDS011;5715;48.234;14.320;2023-07-13T03:54:14;3.97;;;2.55;;
11319;SDS011;5715;48.234;14.320;2023-07-13T03:57:01;3.88;;;3.38;;
11319;SDS011;5715;48.234;14.320;2023-07-13T03:59:49;2.70;;;2.50;;
11319;SDS011;5715;48.234;14.320;2023-07-13T04:02:36;2.67;;;2.53;;
11319;SDS011;5715;48.234;14.320;2023-07-13T04:05:24;8.10;;;3.33;;
11319;SDS011;5715;48.234;14.320;2023-07-13T04:08:12;3.38;;;3.15;;
11319;SDS011;5715;48.234;14.320;2023-07-13T04:11:00;6.40;;;2.50;;
11319;SDS011;5715;48.234;14.320;2023-07-13T04:13:50;3.38;;;2.67;;
11319;SDS011;5715;48.234;14.320;2023-07-13T04:16:39;2.90;;;2.70;;
11319;SDS011;5715;48.234;14.320;2023-07-13T04:19:26;6.45;;;2.83;;
11319;SDS011;5715;48.234;14.320;2023-07-13T04:22:14;3.42;;;3.13;;
11319;SDS011;5715;48.234;14.320;2023-07-13T04:25:01;4.40;;;3.17;;
11319;SDS011;5715;48.234;14.320;2023-07-13T04:27:52;3.13;;;2.92;;
11319;SDS011;5715;48.234;14.320;2023-07-13T04:30:40;3.47;;;2.92;;
11319;SDS011;5715;48.234;14.320;2023-07-13T04:33:28;2.70;;;2.50;;
11319;SDS011;5715;48.234;14.320;2023-07-13T04:36:15;3.13;;;2.83;;
11319;SDS011;5715;48.234;14.320;2023-07-13T04:39:03;2.80;;;2.60;;
11319;SDS011;5715;48.234;14.320;2023-07-13T04:41:51;2.65;;;2.45;;
11319;SDS011;5715;48.234;14.320;2023-07-13T04:44:38;3.92;;;3.05;;
11319;SDS011;5715;48.234;14.320;2023-07-13T04:47:26;2.53;;;2.33;;
11319;SDS011;5715;48.234;14.320;2023-07-13T04:50:17;11.32;;;3.05;;
11319;SDS011;5715;48.234;14.320;2023-07-13T04:53:10;2.65;;;2.45;;
11319;SDS011;5715;48.234;14.320;2023-07-13T04:55:58;2.85;;;2.55;;
11319;SDS011;5715;48.234;14.320;2023-07-13T04:58:45;4.95;;;2.70;;
11319;SDS011;5715;48.234;14.320;2023-07-13T05:01:33;2.30;;;2.20;;
11319;SDS011;5715;48.234;14.320;2023-07-13T05:04:21;4.88;;;2.63;;
11319;SDS011;5715;48.234;14.320;2023-07-13T05:07:09;2.35;;;2.22;;
11319;SDS011;5715;48.234;14.320;2023-07-13T05:09:57;2.58;;;2.38;;
11319;SDS011;5715;48.234;14.320;2023-07-13T05:12:46;2.22;;;1.98;;
11319;SDS011;5715;48.234;14.320;2023-07-13T05:15:34;4.18;;;2.90;;
11319;SDS011;5715;48.234;14.320;2023-07-13T05:18:22;1.70;;;1.60;;
11319;SDS011;5715;48.234;14.320;2023-07-13T05:21:09;2.22;;;1.92;;
11319;SDS011;5715;48.234;14.320;2023-07-13T05:23:59;2.42;;;2.33;;
11319;SDS011;5715;48.234;14.320;2023-07-13T05:27:05;9.57;;;2.35;;
11319;SDS011;5715;48.234;14.320;2023-07-13T05:29:52;3.28;;;2.42;;
11319;SDS011;5715;48.234;14.320;2023-07-13T05:32:40;5.20;;;2.35;;
11319;SDS011;5715;48.234;14.320;2023-07-13T05:35:28;2.50;;;2.30;;
11319;SDS011;5715;48.234;14.320;2023-07-13T05:38:16;2.65;;;2.45;;
11319;SDS011;5715;48.234;14.320;2023-07-13T05:41:07;2.47;;;2.28;;
11319;SDS011;5715;48.234;14.320;2023-07-13T05:43:55;3.03;;;2.83;;
11319;SDS011;5715;48.234;14.320;2023-07-13T05:46:42;3.28;;;3.03;;
11319;SDS011;5715;48.234;14.320;2023-07-13T05:49:30;4.85;;;2.65;;
11319;SDS011;5715;48.234;14.320;2023-07-13T05:52:18;3.20;;;2.90;;
11319;SDS011;5715;48.234;14.320;2023-07-13T05:55:05;3.00;;;2.70;;
11319;SDS011;5715;48.234;14.320;2023-07-13T05:57:53;2.85;;;2.50;;
11319;SDS011;5715;48.234;14.320;2023-07-13T06:00:41;2.63;;;2.47;;
11319;SDS011;5715;48.234;14.320;2023-07-13T06:03:29;3.20;;;2.75;;
11319;SDS011;5715;48.234;14.320;2023-07-13T06:06:16;2.67;;;2.47;;
11319;SDS011;5715;48.234;14.320;2023-07-13T06:09:04;2.58;;;2.38;;
11319;SDS011;5715;48.234;14.320;2023-07-13T06:11:52;2.28;;;2.17;;
11319;SDS011;5715;48.234;14.320;2023-07-13T06:14:40;2.58;;;2.33;;
11319;SDS011;5715;48.234;14.320;2023-07-13T06:17:29;3.10;;;2.03;;
11319;SDS011;5715;48.234;14.320;2023-07-13T06:20:17;2.33;;;2.13;;
11319;SDS011;5715;48.234;14.320;2023-07-13T06:23:05;2.92;;;2.72;;
11319;SDS011;5715;48.234;14.320;2023-07-13T06:25:52;3.33;;;2.50;;
11319;SDS011;5715;48.234;14.320;2023-07-13T06:28:40;2.47;;;2.28;;
11319;SDS011;5715;48.234;14.320;2023-07-13T06:31:28;2.38;;;2.20;;
11319;SDS011;5715;48.234;14.320;2023-07-13T06:34:15;2.45;;;2.30;;
11319;SDS011;5715;48.234;14.320;2023-07-13T06:37:03;2.25;;;2.05;;
11319;SDS011;5715;48.234;14.320;2023-07-13T06:39:50;2.80;;;2.60;;
11319;SDS011;5715;48.234;14.320;2023-07-13T06:42:38;2.67;;;2.47;;
11319;SDS011;5715;48.234;14.320;2023-07-13T06:45:25;2.42;;;2.22;;
11319;SDS011;5715;48.234;14.320;2023-07-13T06:48:13;3.08;;;2.33;;
11319;SDS011;5715;48.234;14.320;2023-07-13T06:51:02;2.45;;;2.25;;
11319;SDS011;5715;48.234;14.320;2023-07-13T06:53:50;2.28;;;2.17;;
11319;SDS011;5715;48.234;14.320;2023-07-13T06:56:37;2.80;;;2.53;;
11319;SDS011;5715;48.234;14.320;2023-07-13T06:59:25;9.75;;;2.67;;
11319;SDS011;5715;48.234;14.320;2023-07-13T07:02:12;6.30;;;2.10;;
11319;SDS011;5715;48.234;14.320;2023-07-13T07:05:00;1.70;;;1.60;;
11319;SDS011;5715;48.234;14.320;2023-07-13T07:07:51;8.35;;;2.08;;
11319;SDS011;5715;48.234;14.320;2023-07-13T07:10:41;2.42;;;1.98;;
11319;SDS011;5715;48.234;14.320;2023-07-13T07:13:29;2.28;;;2.08;;
11319;SDS011;5715;48.234;14.320;2023-07-13T07:16:17;1.52;;;1.42;;
11319;SDS011;5715;48.234;14.320;2023-07-13T07:19:06;3.30;;;2.40;;
11319;SDS011;5715;48.234;14.320;2023-07-13T07:21:53;2.45;;;2.25;;
11319;SDS011;5715;48.234;14.320;2023-07-13T07:24:41;2.67;;;1.98;;
11319;SDS011;5715;48.234;14.320;2023-07-13T07:27:28;1.95;;;1.75;;
11319;SDS011;5715;48.234;14.320;2023-07-13T07:30:19;17.77;;;13.50;;
11319;SDS011;5715;48.234;14.320;2023-07-13T07:33:09;19.77;;;17.65;;
11319;SDS011;5715;48.234;14.320;2023-07-13T07:35:57;21.30;;;17.00;;
11319;SDS011;5715;48.234;14.320;2023-07-13T07:38:47;45.58;;;31.50;;
11319;SDS011;5715;48.234;14.320;2023-07-13T07:41:35;6.00;;;3.42;;
11319;SDS011;5715;48.234;14.320;2023-07-13T07:44:25;8.00;;;3.17;;
11319;SDS011;5715;48.234;14.320;2023-07-13T07:47:13;1.70;;;1.60;;
11319;SDS011;5715;48.234;14.320;2023-07-13T07:50:02;5.80;;;4.55;;
11319;SDS011;5715;48.234;14.320;2023-07-13T07:52:50;1.70;;;1.60;;
11319;SDS011;5715;48.234;14.320;2023-07-13T07:55:38;3.78;;;1.60;;
11319;SDS011;5715;48.234;14.320;2023-07-13T07:58:28;1.90;;;1.80;;
11319;SDS011;5715;48.234;14.320;2023-07-13T08:01:18;1.92;;;1.73;;
11319;SDS011;5715;48.234;14.320;2023-07-13T08:04:09;1.92;;;1.83;;
11319;SDS011;5715;48.234;14.320;2023-07-13T08:07:16;2.47;;;2.05;;
11319;SDS011;5715;48.234;14.320;2023-07-13T08:10:05;1.73;;;1.63;;
11319;SDS011;5715;48.234;14.320;2023-07-13T08:12:53;2.22;;;1.42;;
11319;SDS011;5715;48.234;14.320;2023-07-13T08:15:46;1.50;;;1.40;;
11319;SDS011;5715;48.234;14.320;2023-07-13T08:18:33;3.17;;;1.67;;
11319;SDS011;5715;48.234;14.320;2023-07-13T08:21:21;2.80;;;1.77;;
11319;SDS011;5715;48.234;14.320;2023-07-13T08:24:09;3.15;;;1.98;;
11319;SDS011;5715;48.234;14.320;2023-07-13T08:26:57;1.83;;;1.50;;
11319;SDS011;5715;48.234;14.320;2023-07-13T08:29:47;1.80;;;1.65;;
11319;SDS011;5715;48.234;14.320;2023-07-13T08:32:35;2.30;;;1.70;;
11319;SDS011;5715;48.234;14.320;2023-07-13T08:35:24;2.28;;;1.52;;
11319;SDS011;5715;48.234;14.320;2023-07-13T08:38:12;10.73;;;1.83;;
11319;SDS011;5715;48.234;14.320;2023-07-13T08:41:02;2.05;;;1.80;;
11319;SDS011;5715;48.234;14.320;2023-07-13T08:44:01;3.25;;;1.83;;
11319;SDS011;5715;48.234;14.320;2023-07-13T08:47:05;1.40;;;1.30;;
11319;SDS011;5715;48.234;14.320;2023-07-13T08:49:57;1.55;;;1.45;;
11319;SDS011;5715;48.234;14.320;2023-07-13T08:52:45;1.70;;;1.60;;
11319;SDS011;5715;48.234;14.320;2023-07-13T08:55:34;1.80;;;1.70;;
11319;SDS011;5715;48.234;14.320;2023-07-13T08:58:25;1.50;;;1.40;;
11319;SDS011;5715;48.234;14.320;2023-07-13T09:08:04;1.88;;;1.73;;
11319;SDS011;5715;48.234;14.320;2023-07-13T09:11:46;2.30;;;2.10;;
11319;SDS011;5715;48.234;14.320;2023-07-13T09:14:47;1.40;;;1.30;;
11319;SDS011;5715;48.234;14.320;2023-07-13T09:17:41;1.88;;;1.77;;
11319;SDS011;5715;48.234;14.320;2023-07-13T09:20:56;1.85;;;1.42;;
11319;SDS011;5715;48.234;14.320;2023-07-13T09:24:24;2.17;;;1.75;;
11319;SDS011;5715;48.234;14.320;2023-07-13T09:27:46;1.40;;;1.30;;
11319;SDS011;5715;48.234;14.320;2023-07-13T09:33:49;1.30;;;1.13;;
11319;SDS011;5715;48.234;14.320;2023-07-13T09:36:37;1.90;;;1.70;;
11319;SDS011;5715;48.234;14.320;2023-07-13T09:39:27;2.40;;;1.52;;
11319;SDS011;5715;48.234;14.320;2023-07-13T09:42:22;1.52;;;1.42;;
11319;SDS011;5715;48.234;14.320;2023-07-13T09:45:12;2.70;;;1.30;;
11319;SDS011;5715;48.234;14.320;2023-07-13T09:48:15;2.72;;;2.30;;
11319;SDS011;5715;48.234;14.320;2023-07-13T09:51:14;2.08;;;1.45;;
11319;SDS011;5715;48.234;14.320;2023-07-13T09:54:02;2.15;;;1.95;;
11319;SDS011;5715;48.234;14.320;2023-07-13T09:56:59;2.08;;;1.88;;
11319;SDS011;5715;48.234;14.320;2023-07-13T09:59:49;1.80;;;1.70;;
11319;SDS011;5715;48.234;14.320;2023-07-13T10:02:39;1.50;;;1.40;;
11319;SDS011;5715;48.234;14.320;2023-07-13T10:05:26;2.75;;;1.50;;
11319;SDS011;5715;48.234;14.320;2023-07-13T10:08:21;1.60;;;1.50;;
11319;SDS011;5715;48.234;14.320;2023-07-13T10:11:19;1.98;;;1.88;;
11319;SDS011;5715;48.234;14.320;2023-07-13T10:14:14;1.70;;;1.60;;
11319;SDS011;5715;48.234;14.320;2023-07-13T10:17:08;3.60;;;2.38;;
11319;SDS011;5715;48.234;14.320;2023-07-13T10:20:05;2.95;;;2.05;;
11319;SDS011;5715;48.234;14.320;2023-07-13T10:25:52;3.67;;;1.83;;
11319;SDS011;5715;48.234;14.320;2023-07-13T10:28:40;1.60;;;1.40;;
11319;SDS011;5715;48.234;14.320;2023-07-13T10:31:32;1.90;;;1.80;;
11319;SDS011;5715;48.234;14.320;2023-07-13T10:34:25;1.85;;;1.75;;
11319;SDS011;5715;48.234;14.320;2023-07-13T10:37:18;5.60;;;1.90;;
11319;SDS011;5715;48.234;14.320;2023-07-13T10:40:15;4.60;;;1.77;;
11319;SDS011;5715;48.234;14.320;2023-07-13T10:43:28;1.75;;;1.65;;
11319;SDS011;5715;48.234;14.320;2023-07-13T10:46:26;2.90;;;1.92;;
11319;SDS011;5715;48.234;14.320;2023-07-13T10:49:15;3.50;;;1.52;;
11319;SDS011;5715;48.234;14.320;2023-07-13T10:52:04;2.40;;;2.20;;
11319;SDS011;5715;48.234;14.320;2023-07-13T10:54:52;2.20;;;2.00;;
11319;SDS011;5715;48.234;14.320;2023-07-13T10:57:43;1.95;;;1.85;;
11319;SDS011;5715;48.234;14.320;2023-07-13T11:00:31;1.98;;;1.77;;
11319;SDS011;5715;48.234;14.320;2023-07-13T11:03:29;2.10;;;1.90;;
11319;SDS011;5715;48.234;14.320;2023-07-13T11:09:39;2.60;;;2.20;;
11319;SDS011;5715;48.234;14.320;2023-07-13T11:15:44;3.95;;;2.00;;
11319;SDS011;5715;48.234;14.320;2023-07-13T11:18:35;2.05;;;1.85;;
11319;SDS011;5715;48.234;14.320;2023-07-13T11:21:25;3.22;;;1.63;;
11319;SDS011;5715;48.234;14.320;2023-07-13T11:24:17;1.90;;;1.80;;
11319;SDS011;5715;48.234;14.320;2023-07-13T11:27:14;1.90;;;1.73;;
11319;SDS011;5715;48.234;14.320;2023-07-13T11:36:37;5.72;;;2.00;;
11319;SDS011;5715;48.234;14.320;2023-07-13T11:39:31;2.03;;;1.42;;
11319;SDS011;5715;48.234;14.320;2023-07-13T11:42:23;1.73;;;1.63;;
11319;SDS011;5715;48.234;14.320;2023-07-13T11:45:21;1.90;;;1.80;;
11319;SDS011;5715;48.234;14.320;2023-07-13T11:48:25;1.92;;;1.75;;
11319;SDS011;5715;48.234;14.320;2023-07-13T11:51:22;1.63;;;1.52;;
11319;SDS011;5715;48.234;14.320;2023-07-13T11:54:28;5.80;;;1.92;;
11319;SDS011;5715;48.234;14.320;2023-07-13T11:57:25;1.80;;;1.70;;
11319;SDS011;5715;48.234;14.320;2023-07-13T12:00:33;1.85;;;1.75;;
11319;SDS011;5715;48.234;14.320;2023-07-13T12:03:22;2.00;;;1.80;;
11319;SDS011;5715;48.234;14.320;2023-07-13T12:09:28;2.10;;;1.80;;
11319;SDS011;5715;48.234;14.320;2023-07-13T12:12:20;1.80;;;1.67;;
11319;SDS011;5715;48.234;14.320;2023-07-13T12:15:10;1.70;;;1.60;;
11319;SDS011;5715;48.234;14.320;2023-07-13T12:17:59;2.13;;;1.60;;
11319;SDS011;5715;48.234;14.320;2023-07-13T12:20:47;7.43;;;1.50;;
11319;SDS011;5715;48.234;14.320;2023-07-13T12:23:39;5.05;;;2.00;;
11319;SDS011;5715;48.234;14.320;2023-07-13T12:26:33;1.40;;;1.30;;
11319;SDS011;5715;48.234;14.320;2023-07-13T12:29:21;2.00;;;1.90;;
11319;SDS011;5715;48.234;14.320;2023-07-13T12:32:09;1.67;;;1.58;;
11319;SDS011;5715;48.234;14.320;2023-07-13T12:35:14;2.08;;;1.67;;
11319;SDS011;5715;48.234;14.320;2023-07-13T12:38:09;1.77;;;1.67;;
11319;SDS011;5715;48.234;14.320;2023-07-13T12:40:58;1.50;;;1.40;;
11319;SDS011;5715;48.234;14.320;2023-07-13T12:43:48;2.17;;;1.70;;
11319;SDS011;5715;48.234;14.320;2023-07-13T12:46:36;2.17;;;1.73;;
11319;SDS011;5715;48.234;14.320;2023-07-13T12:49:26;3.92;;;1.73;;
11319;SDS011;5715;48.234;14.320;2023-07-13T12:52:21;2.53;;;1.50;;
11319;SDS011;5715;48.234;14.320;2023-07-13T12:55:21;4.85;;;1.35;;
11319;SDS011;5715;48.234;14.320;2023-07-13T12:58:14;1.52;;;1.42;;
11319;SDS011;5715;48.234;14.320;2023-07-13T13:01:19;3.05;;;1.80;;
11319;SDS011;5715;48.234;14.320;2023-07-13T13:04:16;2.00;;;1.90;;
11319;SDS011;5715;48.234;14.320;2023-07-13T13:07:08;2.30;;;2.08;;
11319;SDS011;5715;48.234;14.320;2023-07-13T13:09:57;2.30;;;2.10;;
11319;SDS011;5715;48.234;14.320;2023-07-13T13:12:44;2.10;;;1.90;;
11319;SDS011;5715;48.234;14.320;2023-07-13T13:15:32;3.42;;;2.45;;
11319;SDS011;5715;48.234;14.320;2023-07-13T13:18:20;2.00;;;1.85;;
11319;SDS011;5715;48.234;14.320;2023-07-13T13:21:10;1.48;;;1.38;;
11319;SDS011;5715;48.234;14.320;2023-07-13T13:23:58;2.78;;;1.90;;
11319;SDS011;5715;48.234;14.320;2023-07-13T13:26:46;2.30;;;2.10;;
11319;SDS011;5715;48.234;14.320;2023-07-13T13:29:36;2.00;;;1.88;;
11319;SDS011;5715;48.234;14.320;2023-07-13T13:32:26;4.40;;;2.13;;
11319;SDS011;5715;48.234;14.320;2023-07-13T13:35:14;2.67;;;2.08;;
11319;SDS011;5715;48.234;14.320;2023-07-13T13:41:03;3.20;;;1.67;;
11319;SDS011;5715;48.234;14.320;2023-07-13T13:43:51;2.00;;;1.90;;
11319;SDS011;5715;48.234;14.320;2023-07-13T13:46:38;1.98;;;1.73;;
11319;SDS011;5715;48.234;14.320;2023-07-13T13:49:27;2.33;;;2.13;;
11319;SDS011;5715;48.234;14.320;2023-07-13T13:52:16;3.85;;;1.77;;
11319;SDS011;5715;48.234;14.320;2023-07-13T13:55:11;2.33;;;2.13;;
11319;SDS011;5715;48.234;14.320;2023-07-13T13:58:05;3.58;;;2.10;;
11319;SDS011;5715;48.234;14.320;2023-07-13T14:00:53;2.20;;;2.00;;
11319;SDS011;5715;48.234;14.320;2023-07-13T14:03:40;3.35;;;2.08;;
11319;SDS011;5715;48.234;14.320;2023-07-13T14:06:28;2.67;;;2.47;;
11319;SDS011;5715;48.234;14.320;2023-07-13T14:09:17;3.83;;;2.00;;
11319;SDS011;5715;48.234;14.320;2023-07-13T14:12:09;2.05;;;1.95;;
11319;SDS011;5715;48.234;14.320;2023-07-13T14:14:58;5.68;;;2.45;;
11319;SDS011;5715;48.234;14.320;2023-07-13T14:17:46;4.10;;;2.30;;
11319;SDS011;5715;48.234;14.320;2023-07-13T14:20:37;2.05;;;1.75;;
11319;SDS011;5715;48.234;14.320;2023-07-13T14:23:25;4.30;;;1.98;;
11319;SDS011;5715;48.234;14.320;2023-07-13T14:26:13;5.20;;;2.40;;
11319;SDS011;5715;48.234;14.320;2023-07-13T14:29:09;2.20;;;1.85;;
11319;SDS011;5715;48.234;14.320;2023-07-13T14:32:10;4.90;;;2.03;;
11319;SDS011;5715;48.234;14.320;2023-07-13T14:34:59;2.45;;;2.20;;
11319;SDS011;5715;48.234;14.320;2023-07-13T14:37:47;1.52;;;1.42;;
11319;SDS011;5715;48.234;14.320;2023-07-13T14:40:35;1.58;;;1.48;;
11319;SDS011;5715;48.234;14.320;2023-07-13T14:43:24;1.42;;;1.25;;
11319;SDS011;5715;48.234;14.320;2023-07-13T14:46:32;1.75;;;1.65;;
11319;SDS011;5715;48.234;14.320;2023-07-13T14:52:25;5.22;;;1.27;;
11319;SDS011;5715;48.234;14.320;2023-07-13T14:55:14;1.73;;;1.30;;
11319;SDS011;5715;48.234;14.320;2023-07-13T14:58:06;1.17;;;1.08;;
11319;SDS011;5715;48.234;14.320;2023-07-13T15:00:53;1.30;;;1.20;;
11319;SDS011;5715;48.234;14.320;2023-07-13T15:03:45;2.88;;;1.40;;
11319;SDS011;5715;48.234;14.320;2023-07-13T15:06:59;2.03;;;1.35;;
11319;SDS011;5715;48.234;14.320;2023-07-13T15:09:49;3.13;;;1.55;;
11319;SDS011;5715;48.234;14.320;2023-07-13T15:12:38;5.63;;;1.05;;
11319;SDS011;5715;48.234;14.320;2023-07-13T15:15:26;1.42;;;1.33;;
11319;SDS011;5715;48.234;14.320;2023-07-13T15:18:16;2.13;;;1.55;;
11319;SDS011;5715;48.234;14.320;2023-07-13T15:21:14;1.17;;;1.13;;
11319;SDS011;5715;48.234;14.320;2023-07-13T15:24:10;2.33;;;1.00;;
11319;SDS011;5715;48.234;14.320;2023-07-13T15:26:58;1.77;;;1.33;;
11319;SDS011;5715;48.234;14.320;2023-07-13T15:29:46;2.38;;;1.70;;
11319;SDS011;5715;48.234;14.320;2023-07-13T15:32:33;1.23;;;1.13;;
11319;SDS011;5715;48.234;14.320;2023-07-13T15:35:22;1.50;;;1.27;;
11319;SDS011;5715;48.234;14.320;2023-07-13T15:38:13;2.83;;;1.60;;
11319;SDS011;5715;48.234;14.320;2023-07-13T15:41:15;1.70;;;1.00;;
11319;SDS011;5715;48.234;14.320;2023-07-13T15:44:26;9.63;;;1.40;;
11319;SDS011;5715;48.234;14.320;2023-07-13T15:47:17;1.27;;;0.98;;
11319;SDS011;5715;48.234;14.320;2023-07-13T15:50:07;1.48;;;1.00;;
11319;SDS011;5715;48.234;14.320;2023-07-13T15:53:04;1.17;;;1.08;;
11319;SDS011;5715;48.234;14.320;2023-07-13T15:55:55;3.85;;;1.15;;
11319;SDS011;5715;48.234;14.320;2023-07-13T15:58:44;3.40;;;1.00;;
11319;SDS011;5715;48.234;14.320;2023-07-13T16:01:33;1.13;;;1.02;;
11319;SDS011;5715;48.234;14.320;2023-07-13T16:04:21;1.40;;;1.17;;
11319;SDS011;5715;48.234;14.320;2023-07-13T16:07:10;1.33;;;1.10;;
11319;SDS011;5715;48.234;14.320;2023-07-13T16:10:00;1.30;;;1.17;;
11319;SDS011;5715;48.234;14.320;2023-07-13T16:12:48;1.20;;;1.10;;
11319;SDS011;5715;48.234;14.320;2023-07-13T16:15:35;1.13;;;1.02;;
11319;SDS011;5715;48.234;14.320;2023-07-13T16:18:23;3.40;;;1.10;;
11319;SDS011;5715;48.234;14.320;2023-07-13T16:21:11;1.00;;;1.00;;
11319;SDS011;5715;48.234;14.320;2023-07-13T16:24:01;2.88;;;1.50;;
11319;SDS011;5715;48.234;14.320;2023-07-13T16:26:51;1.17;;;1.08;;
11319;SDS011;5715;48.234;14.320;2023-07-13T16:29:42;1.25;;;1.00;;
11319;SDS011;5715;48.234;14.320;2023-07-13T16:32:30;5.30;;;1.73;;
11319;SDS011;5715;48.234;14.320;2023-07-13T16:35:18;1.13;;;1.00;;
11319;SDS011;5715;48.234;14.320;2023-07-13T16:38:16;8.88;;;1.58;;
11319;SDS011;5715;48.234;14.320;2023-07-13T16:41:07;1.80;;;1.10;;
11319;SDS011;5715;48.234;14.320;2023-07-13T16:43:56;1.30;;;1.20;;
11319;SDS011;5715;48.234;14.320;2023-07-13T16:46:44;1.63;;;1.17;;
11319;SDS011;5715;48.234;14.320;2023-07-13T16:49:36;0.90;;;0.90;;
11319;SDS011;5715;48.234;14.320;2023-07-13T16:52:24;1.00;;;0.95;;
11319;SDS011;5715;48.234;14.320;2023-07-13T16:55:14;1.60;;;1.10;;
11319;SDS011;5715;48.234;14.320;2023-07-13T16:58:14;1.40;;;1.30;;
11319;SDS011;5715;48.234;14.320;2023-07-13T17:01:02;1.08;;;0.98;;
11319;SDS011;5715;48.234;14.320;2023-07-13T17:03:50;2.03;;;1.02;;
11319;SDS011;5715;48.234;14.320;2023-07-13T17:06:49;1.63;;;1.20;;
11319;SDS011;5715;48.234;14.320;2023-07-13T17:09:41;2.58;;;1.48;;
11319;SDS011;5715;48.234;14.320;2023-07-13T17:12:32;5.45;;;1.67;;
11319;SDS011;5715;48.234;14.320;2023-07-13T17:15:21;1.42;;;1.33;;
11319;SDS011;5715;48.234;14.320;2023-07-13T17:18:14;1.55;;;1.00;;
11319;SDS011;5715;48.234;14.320;2023-07-13T17:21:06;1.50;;;1.38;;
11319;SDS011;5715;48.234;14.320;2023-07-13T17:24:00;1.08;;;0.98;;
11319;SDS011;5715;48.234;14.320;2023-07-13T17:26:48;3.13;;;1.30;;
11319;SDS011;5715;48.234;14.320;2023-07-13T17:29:37;1.30;;;1.10;;
11319;SDS011;5715;48.234;14.320;2023-07-13T17:32:24;4.32;;;1.50;;
11319;SDS011;5715;48.234;14.320;2023-07-13T17:35:30;5.32;;;1.58;;
11319;SDS011;5715;48.234;14.320;2023-07-13T17:38:22;2.50;;;1.38;;
11319;SDS011;5715;48.234;14.320;2023-07-13T17:41:17;3.92;;;1.60;;
11319;SDS011;5715;48.234;14.320;2023-07-13T17:44:05;1.60;;;1.25;;
11319;SDS011;5715;48.234;14.320;2023-07-13T17:46:52;1.48;;;1.38;;
11319;SDS011;5715;48.234;14.320;2023-07-13T17:49:41;2.15;;;1.50;;
11319;SDS011;5715;48.234;14.320;2023-07-13T17:52:30;2.55;;;1.30;;